Terminal Aerodrome Forecast
Issued by NWS

Home | Current Version | Previous Version | Graphics & Text | Print | Product List | Glossary On
Versions: 1 2 3 4 5 6 7 8 9 10 11 12 13 14 15 16
187
FTUS42 KMHX 201120
TAFOAJ
TAF
KOAJ 201120Z 2012/2112 00000KT 1/4SM FG OVC003
     FM201300 00000KT 3SM BR BKN007
     FM201400 VRB05KT P6SM SCT040
     FM210800 00000KT 2SM BR SCT005
      AMD LTD TO CLD VIS AND WIND=

USA.gov is the U.S. government's official web portal to all federal, state and local government web resources and services.